Time;durP1;ratioP1;P1;durP2;ratioP2;P2;SDS_P1;SDS_P2;PMS_P1;PMS_P2;Temp;Humidity;BMP_temperature;BMP_pressure;BME280_temperature;BME280_humidity;BME280_pressure;Samples;Min_cycle;Max_cycle;Signal;HPM_P1;HPM_P2
2022/08/19 00:01:35;;;;;;;69.55;56.90;;;26.20;59.10;;;;;;4942820;28;96229;-54
2022/08/19 00:04:03;;;;;;;68.55;57.15;;;26.20;59.10;;;;;;4951170;28;96838;-55
2022/08/19 00:06:29;;;;;;;68.70;56.70;;;26.20;59.10;;;;;;4950410;28;96125;-56
2022/08/19 00:08:57;;;;;;;69.18;56.60;;;26.20;59.20;;;;;;4946275;28;95264;-55
2022/08/19 00:11:23;;;;;;;67.28;56.95;;;26.20;59.10;;;;;;4951331;28;95425;-55
2022/08/19 00:13:49;;;;;;;67.85;56.75;;;26.20;59.20;;;;;;4940500;28;95693;-52
2022/08/19 00:16:20;;;;;;;67.65;56.17;;;26.20;59.00;;;;;;4946462;28;95666;-51
2022/08/19 00:18:47;;;;;;;68.88;56.20;;;26.20;59.00;;;;;;4943007;28;95233;-54
2022/08/19 00:21:13;;;;;;;68.43;56.85;;;26.10;58.90;;;;;;4944879;28;96543;-54
2022/08/19 00:23:38;;;;;;;68.07;55.80;;;26.20;59.20;;;;;;4948795;28;95564;-55
2022/08/19 00:26:05;;;;;;;67.38;56.63;;;26.10;58.90;;;;;;4947209;28;95933;-54
2022/08/19 00:28:32;;;;;;;67.97;56.28;;;26.10;58.90;;;;;;4951083;28;101713;-55
2022/08/19 00:30:59;;;;;;;69.40;56.78;;;26.10;58.90;;;;;;4953058;28;95500;-54
2022/08/19 00:33:25;;;;;;;70.07;56.75;;;26.20;59.10;;;;;;4953393;28;96994;-55
2022/08/19 00:35:50;;;;;;;67.72;56.42;;;26.10;59.00;;;;;;4946740;28;95907;-55
2022/08/19 00:38:16;;;;;;;68.43;56.53;;;26.10;59.00;;;;;;4949063;28;96039;-56
2022/08/19 00:40:47;;;;;;;67.35;56.47;;;26.10;59.10;;;;;;4950932;28;95170;-56
2022/08/19 00:43:17;;;;;;;;;;;26.10;59.10;;;;;;4953657;28;94573;-56
2022/08/19 00:45:43;;;;;;;67.68;55.88;;;26.10;59.00;;;;;;4942730;28;96418;-55
2022/08/19 00:48:10;;;;;;;66.53;56.20;;;26.10;58.90;;;;;;4950726;28;95157;-55
2022/08/19 00:50:40;;;;;;;67.03;56.08;;;26.10;58.90;;;;;;4948516;28;101291;-55
2022/08/19 00:53:06;;;;;;;68.82;56.45;;;26.10;58.90;;;;;;4939501;28;96000;-56
2022/08/19 00:55:33;;;;;;;66.65;55.88;;;26.10;59.00;;;;;;4947636;28;95284;-56
2022/08/19 00:58:03;;;;;;;68.00;56.45;;;26.10;59.00;;;;;;4949140;28;98832;-55
2022/08/19 01:00:36;;;;;;;67.90;56.22;;;26.10;59.00;;;;;;4947983;28;98099;-54
2022/08/19 01:03:06;;;;;;;66.45;55.53;;;26.10;58.90;;;;;;4949112;28;95818;-55
2022/08/19 01:05:32;;;;;;;68.90;56.10;;;26.10;58.90;;;;;;4939247;28;95443;-54
2022/08/19 01:08:02;;;;;;;68.53;56.33;;;26.10;58.90;;;;;;4947117;28;94081;-53
2022/08/19 01:10:33;;;;;;;68.37;55.70;;;26.10;58.90;;;;;;4952807;28;95369;-52
2022/08/19 01:13:00;;;;;;;65.95;55.72;;;26.10;58.90;;;;;;4941280;28;95394;-56
2022/08/19 01:15:33;;;;;;;67.80;56.28;;;26.10;59.20;;;;;;4926714;28;99294;-53
2022/08/19 01:18:08;;;;;;;67.57;55.90;;;26.00;58.80;;;;;;4946709;28;100017;-54
2022/08/19 01:20:34;;;;;;;67.40;55.72;;;26.00;58.90;;;;;;4939789;28;94866;-53
2022/08/19 01:23:00;;;;;;;66.70;55.72;;;26.00;58.90;;;;;;4948975;28;95130;-55
2022/08/19 01:25:43;;;;;;;67.40;56.03;;;26.00;58.90;;;;;;4947064;28;95370;-54
2022/08/19 01:28:19;;;;;;;67.20;55.42;;;26.00;59.00;;;;;;4954409;28;95461;-55
2022/08/19 01:30:46;;;;;;;67.25;55.72;;;26.00;58.80;;;;;;4951380;28;96791;-53
2022/08/19 01:33:12;;;;;;;66.57;55.40;;;26.00;58.90;;;;;;4947536;28;94395;-53
2022/08/19 01:35:38;;;;;;;67.30;55.42;;;26.00;58.90;;;;;;4953734;28;95598;-55
2022/08/19 01:38:10;;;;;;;65.80;55.17;;;26.00;59.00;;;;;;4955980;28;98824;-55
2022/08/19 01:40:39;;;;;;;66.07;54.80;;;26.00;58.90;;;;;;4953478;28;96076;-54
2022/08/19 01:43:06;;;;;;;66.63;55.80;;;26.00;58.80;;;;;;4952198;28;95182;-55
2022/08/19 01:45:33;;;;;;;66.30;55.30;;;26.00;58.90;;;;;;4953903;28;95640;-55
2022/08/19 01:47:59;;;;;;;66.55;55.63;;;26.00;58.90;;;;;;4944761;28;99434;-55
2022/08/19 01:50:27;;;;;;;66.25;55.17;;;25.90;59.00;;;;;;4945774;28;95637;-53
2022/08/19 01:52:53;;;;;;;66.43;55.38;;;25.90;59.00;;;;;;4954750;28;95182;-55
2022/08/19 01:55:21;;;;;;;66.95;55.38;;;26.00;59.00;;;;;;4948153;28;95538;-53
2022/08/19 01:57:53;;;;;;;66.22;55.30;;;25.90;58.90;;;;;;4950068;28;95051;-56
2022/08/19 02:00:21;;;;;;;68.13;55.20;;;26.00;59.00;;;;;;4947658;28;95707;-55
2022/08/19 02:02:47;;;;;;;65.55;54.97;;;25.90;58.90;;;;;;4942404;28;95143;-53
2022/08/19 02:05:13;;;;;;;65.57;54.42;;;25.90;58.90;;;;;;4944060;28;96104;-56
2022/08/19 02:07:40;;;;;;;66.05;55.33;;;25.90;58.90;;;;;;4946990;28;96128;-55
2022/08/19 02:10:10;;;;;;;67.38;55.30;;;25.90;58.80;;;;;;4947979;28;97301;-54
2022/08/19 02:12:35;;;;;;;66.82;55.03;;;25.90;58.90;;;;;;4952293;28;97743;-56
2022/08/19 02:15:03;;;;;;;66.13;54.85;;;25.90;58.90;;;;;;4947641;28;95652;-53
2022/08/19 02:17:29;;;;;;;68.22;55.33;;;25.90;58.80;;;;;;4954931;28;94787;-52
2022/08/19 02:19:57;;;;;;;66.15;55.15;;;25.90;58.80;;;;;;4948595;28;96621;-54
2022/08/19 02:22:25;;;;;;;64.28;53.90;;;25.90;58.90;;;;;;4956903;28;94896;-54
2022/08/19 02:24:51;;;;;;;65.13;54.60;;;25.90;58.80;;;;;;4948982;28;95791;-54
2022/08/19 02:27:17;;;;;;;66.47;54.78;;;25.90;58.90;;;;;;4952031;28;100226;-54
2022/08/19 02:29:45;;;;;;;67.47;55.08;;;25.90;58.80;;;;;;4955611;28;96352;-53
2022/08/19 02:32:10;;;;;;;66.00;54.53;;;25.90;58.90;;;;;;4950240;28;94920;-55
2022/08/19 02:34:36;;;;;;;65.35;54.92;;;25.90;58.90;;;;;;4949007;28;97231;-54
2022/08/19 02:37:02;;;;;;;65.05;54.53;;;25.90;58.90;;;;;;4946630;28;95156;-52
2022/08/19 02:39:27;;;;;;;67.07;55.15;;;25.80;58.80;;;;;;4947232;28;95122;-54
2022/08/19 02:41:53;;;;;;;64.50;53.97;;;25.80;58.90;;;;;;4949767;28;95339;-52
2022/08/19 02:44:19;;;;;;;65.55;54.72;;;25.80;58.90;;;;;;4950530;28;95891;-56
2022/08/19 02:46:49;;;;;;;66.65;54.78;;;25.90;59.00;;;;;;4946827;28;97745;-56
2022/08/19 02:49:16;;;;;;;65.53;54.65;;;25.90;59.00;;;;;;4957914;28;96417;-55
2022/08/19 02:51:44;;;;;;;65.22;54.83;;;25.80;59.50;;;;;;4958771;28;95298;-54
2022/08/19 02:54:12;;;;;;;67.07;55.15;;;25.90;58.90;;;;;;4954023;28;97414;-54
2022/08/19 02:56:40;;;;;;;66.05;54.78;;;25.90;58.90;;;;;;4949111;28;97676;-54
2022/08/19 02:59:09;;;;;;;65.97;54.67;;;25.80;58.90;;;;;;4946013;28;94879;-56
2022/08/19 03:01:36;;;;;;;65.32;54.45;;;25.80;58.90;;;;;;4946990;28;96203;-52
2022/08/19 03:04:04;;;;;;;66.25;54.55;;;25.80;59.00;;;;;;4946238;28;96448;-53
2022/08/19 03:06:31;;;;;;;64.43;54.38;;;25.80;59.00;;;;;;4956621;28;95052;-54
2022/08/19 03:08:58;;;;;;;65.35;54.50;;;25.80;58.90;;;;;;4960175;28;95020;-55
2022/08/19 03:11:31;;;;;;;65.55;54.30;;;25.80;58.90;;;;;;4947869;28;94879;-55
2022/08/19 03:13:58;;;;;;;65.35;54.00;;;25.80;59.00;;;;;;4954747;28;96499;-54
2022/08/19 03:16:25;;;;;;;65.25;54.08;;;25.80;59.00;;;;;;4946436;28;96840;-55
2022/08/19 03:18:52;;;;;;;65.47;54.08;;;25.80;58.90;;;;;;4950547;28;97897;-52
2022/08/19 03:21:24;;;;;;;65.50;54.38;;;25.80;58.90;;;;;;4973488;28;95483;-56
2022/08/19 03:23:53;;;;;;;65.50;54.13;;;25.80;58.90;;;;;;4945691;28;95570;-51
2022/08/19 03:26:18;;;;;;;65.65;54.28;;;25.80;58.90;;;;;;4949432;28;95786;-53
2022/08/19 03:28:49;;;;;;;64.47;53.85;;;25.80;58.90;;;;;;4953024;28;95063;-55
2022/08/19 03:31:17;;;;;;;65.88;54.63;;;25.80;58.90;;;;;;4950000;28;95445;-53
2022/08/19 03:33:43;;;;;;;65.30;54.35;;;25.70;59.00;;;;;;4950053;28;95575;-51
2022/08/19 03:36:14;;;;;;;65.43;54.00;;;25.80;58.90;;;;;;4944012;28;94911;-55
2022/08/19 03:38:43;;;;;;;64.20;53.47;;;25.70;58.90;;;;;;4953099;28;96660;-55
2022/08/19 03:41:17;;;;;;;65.30;54.00;;;25.70;58.80;;;;;;4950535;28;94993;-52
2022/08/19 03:43:46;;;;;;;64.07;54.10;;;25.70;58.90;;;;;;4942621;28;96966;-55
2022/08/19 03:46:14;;;;;;;64.55;53.90;;;25.70;59.00;;;;;;4944601;28;96015;-53
2022/08/19 03:48:42;;;;;;;64.03;53.45;;;25.70;58.90;;;;;;4948824;28;97165;-53
2022/08/19 03:51:15;;;;;;;64.28;53.55;;;25.70;58.90;;;;;;4947583;28;95910;-55
2022/08/19 03:53:40;;;;;;;64.40;53.80;;;25.70;58.90;;;;;;4948669;28;95267;-56
2022/08/19 03:56:09;;;;;;;63.95;53.65;;;25.70;59.00;;;;;;4939456;28;95151;-55
2022/08/19 03:58:37;;;;;;;64.55;53.83;;;25.70;59.00;;;;;;4947637;28;95979;-54
2022/08/19 04:01:07;;;;;;;64.57;53.95;;;25.70;58.90;;;;;;4942493;28;94189;-52
2022/08/19 04:03:35;;;;;;;65.55;53.67;;;25.70;59.00;;;;;;4942922;28;98141;-54
2022/08/19 04:06:12;;;;;;;64.40;53.65;;;25.70;59.00;;;;;;4946850;28;95774;-55
2022/08/19 04:08:40;;;;;;;64.68;53.33;;;25.70;59.00;;;;;;4953827;28;97356;-55
2022/08/19 04:11:17;;;;;;;65.38;53.72;;;25.70;58.90;;;;;;4951684;28;99805;-53
2022/08/19 04:13:44;;;;;;;64.78;53.70;;;25.70;59.00;;;;;;4942042;28;101246;-54
2022/08/19 04:16:10;;;;;;;64.38;53.88;;;25.60;58.90;;;;;;4953789;28;95013;-56
2022/08/19 04:18:38;;;;;;;64.22;53.33;;;25.60;59.00;;;;;;4951780;28;95099;-53
2022/08/19 04:21:05;;;;;;;64.68;53.90;;;25.70;59.00;;;;;;4950060;28;96621;-55
2022/08/19 04:23:33;;;;;;;65.60;53.42;;;25.60;58.90;;;;;;4949011;28;97050;-54
2022/08/19 04:25:59;;;;;;;64.00;53.38;;;25.60;58.80;;;;;;4947311;28;94990;-55
2022/08/19 04:28:25;;;;;;;64.05;53.28;;;25.60;58.90;;;;;;4952058;28;95204;-56
2022/08/19 04:30:53;;;;;;;66.55;53.83;;;25.70;58.90;;;;;;4951736;28;97179;-56
2022/08/19 04:33:22;;;;;;;64.18;53.45;;;25.70;58.90;;;;;;4940808;28;97746;-55
2022/08/19 04:35:49;;;;;;;63.75;53.70;;;25.60;58.90;;;;;;4943781;28;95864;-55
2022/08/19 04:38:16;;;;;;;65.68;53.75;;;25.60;59.00;;;;;;4941843;28;95491;-55
2022/08/19 04:43:29;;;;;;;64.38;53.05;;;25.60;58.90;;;;;;4953292;28;100832;-52
2022/08/19 04:45:55;;;;;;;63.20;53.05;;;25.70;58.90;;;;;;4946395;28;95770;-52
2022/08/19 04:48:27;;;;;;;63.97;53.30;;;25.70;58.80;;;;;;4954038;28;96055;-55
2022/08/19 04:50:59;;;;;;;64.30;53.30;;;25.60;58.80;;;;;;4948027;28;94508;-55
2022/08/19 04:53:31;;;;;;;63.97;53.10;;;25.60;58.80;;;;;;4950926;28;95653;-56
2022/08/19 04:55:59;;;;;;;65.90;53.13;;;25.60;58.80;;;;;;4948038;28;95007;-55
2022/08/19 04:58:27;;;;;;;67.38;53.65;;;25.60;59.00;;;;;;4945310;28;95936;-55
2022/08/19 05:00:52;;;;;;;65.57;53.35;;;25.60;58.90;;;;;;4947003;28;98397;-56
2022/08/19 05:03:19;;;;;;;63.55;52.85;;;25.60;58.90;;;;;;4947655;28;96891;-55
2022/08/19 05:05:48;;;;;;;65.70;53.03;;;25.70;59.50;;;;;;4944047;28;96112;-53
2022/08/19 05:08:19;;;;;;;65.40;53.28;;;25.60;58.90;;;;;;4938378;28;95898;-53
2022/08/19 05:10:47;;;;;;;66.78;52.95;;;25.70;59.60;;;;;;4942447;28;95522;-55
2022/08/19 05:13:14;;;;;;;63.75;52.90;;;25.60;59.00;;;;;;4951016;28;95346;-53
2022/08/19 05:15:40;;;;;;;64.38;52.88;;;25.60;59.00;;;;;;4950345;28;94394;-56
2022/08/19 05:23:34;;;;;;;64.72;52.90;;;25.60;59.10;;;;;;4943264;28;96710;-54
2022/08/19 05:26:00;;;;;;;64.90;53.25;;;25.60;59.20;;;;;;4944324;28;103887;-55
2022/08/19 05:28:25;;;;;;;64.70;53.20;;;25.70;59.20;;;;;;4946103;28;94611;-54
2022/08/19 05:30:51;;;;;;;68.20;53.85;;;25.60;59.20;;;;;;4937802;28;99584;-56
2022/08/19 05:33:18;;;;;;;71.80;54.78;;;25.70;59.30;;;;;;4934634;28;97269;-52
2022/08/19 05:35:44;;;;;;;68.68;54.45;;;25.60;59.30;;;;;;4951857;28;94926;-55
2022/08/19 05:38:10;;;;;;;68.60;54.28;;;25.60;59.50;;;;;;4946248;28;94627;-56
2022/08/19 05:40:38;;;;;;;69.63;54.53;;;25.70;59.50;;;;;;4946689;28;95391;-52
2022/08/19 05:43:05;;;;;;;65.55;53.65;;;25.60;59.50;;;;;;4949446;28;95363;-54
2022/08/19 05:45:31;;;;;;;69.82;54.15;;;25.60;59.50;;;;;;4950995;28;94768;-54
2022/08/19 05:47:58;;;;;;;68.53;54.13;;;25.60;59.50;;;;;;4949263;28;96165;-54
2022/08/19 05:50:26;;;;;;;66.57;53.80;;;25.60;59.50;;;;;;4953726;28;94917;-53
2022/08/19 05:52:52;;;;;;;68.47;54.38;;;25.60;59.60;;;;;;4954055;28;96890;-56
2022/08/19 05:55:19;;;;;;;66.78;54.08;;;25.60;59.60;;;;;;4945717;28;101257;-54
2022/08/19 05:57:46;;;;;;;67.85;53.72;;;25.60;59.50;;;;;;4947058;28;100928;-55
2022/08/19 06:00:13;;;;;;;67.22;53.78;;;25.60;59.50;;;;;;4950706;28;94773;-54
2022/08/19 06:02:40;;;;;;;67.50;53.53;;;25.70;59.60;;;;;;4949023;28;95050;-51
2022/08/19 06:05:07;;;;;;;66.82;53.83;;;25.60;59.50;;;;;;4957534;28;95294;-54
2022/08/19 06:07:32;;;;;;;66.30;54.10;;;25.60;59.50;;;;;;4953469;28;94463;-54
2022/08/19 06:09:58;;;;;;;66.10;53.13;;;25.60;59.50;;;;;;4951368;28;95292;-54
2022/08/19 06:12:32;;;;;;;67.25;54.13;;;25.60;59.60;;;;;;4956359;28;96083;-54
2022/08/19 06:14:59;;;;;;;66.95;53.85;;;25.70;59.70;;;;;;4954821;28;96149;-55
2022/08/19 06:17:25;;;;;;;70.18;54.35;;;25.60;59.60;;;;;;4948801;28;94872;-54
2022/08/19 06:19:51;;;;;;;67.60;54.33;;;25.60;59.60;;;;;;4957373;28;94799;-53
2022/08/19 06:22:17;;;;;;;67.30;54.03;;;25.60;59.60;;;;;;4952348;28;95859;-51
2022/08/19 06:24:43;;;;;;;66.90;53.75;;;25.60;59.60;;;;;;4954298;28;95170;-55
2022/08/19 06:27:09;;;;;;;70.50;54.70;;;25.60;59.60;;;;;;4953064;28;94569;-54
2022/08/19 06:29:35;;;;;;;66.25;54.17;;;25.60;59.50;;;;;;4941730;28;95397;-51
2022/08/19 06:32:03;;;;;;;66.55;54.00;;;25.60;59.60;;;;;;4947025;28;97075;-54
2022/08/19 06:34:31;;;;;;;68.78;54.33;;;25.60;59.70;;;;;;4943649;28;95552;-55
2022/08/19 06:37:01;;;;;;;66.82;53.83;;;25.60;59.70;;;;;;4949382;28;96727;-56
2022/08/19 06:39:29;;;;;;;74.60;56.38;;;25.60;59.60;;;;;;4944931;28;95198;-54
2022/08/19 06:41:58;;;;;;;71.38;55.63;;;25.60;61.70;;;;;;4956646;28;95342;-55
2022/08/19 06:44:27;;;;;;;73.03;57.10;;;25.40;62.40;;;;;;4951939;28;95150;-56
2022/08/19 06:46:56;;;;;;;68.95;56.08;;;25.30;62.90;;;;;;4952746;28;99174;-56
2022/08/19 06:49:22;;;;;;;72.78;57.65;;;25.20;63.60;;;;;;4958617;28;94716;-55
2022/08/19 06:51:49;;;;;;;73.38;59.22;;;25.20;64.00;;;;;;4959474;28;95592;-55
2022/08/19 06:54:16;;;;;;;75.90;59.05;;;25.20;64.70;;;;;;4954915;28;101358;-56
2022/08/19 06:56:45;;;;;;;80.32;61.05;;;25.10;64.80;;;;;;4949942;28;94934;-58
2022/08/19 06:59:14;;;;;;;79.97;60.22;;;25.00;65.30;;;;;;4953414;28;95595;-56
2022/08/19 07:01:45;;;;;;;80.38;59.40;;;25.00;65.40;;;;;;4948538;28;97734;-53
2022/08/19 07:04:11;;;;;;;81.45;59.08;;;25.00;65.60;;;;;;4945646;28;95096;-55
2022/08/19 07:06:37;;;;;;;79.40;62.05;;;24.90;65.70;;;;;;4952764;28;95846;-55
2022/08/19 07:09:06;;;;;;;78.38;60.08;;;24.90;65.90;;;;;;4953685;28;95455;-55
2022/08/19 07:11:32;;;;;;;76.22;60.00;;;25.00;65.80;;;;;;4952418;28;96077;-56
2022/08/19 07:13:58;;;;;;;78.13;60.60;;;25.00;65.80;;;;;;4948741;28;96249;-54
2022/08/19 07:16:24;;;;;;;76.38;61.35;;;25.00;65.90;;;;;;4959602;28;96146;-56
2022/08/19 07:18:51;;;;;;;74.55;58.65;;;25.00;66.30;;;;;;4956838;28;97337;-54
2022/08/19 07:21:22;;;;;;;76.85;59.53;;;25.10;66.00;;;;;;4950701;28;95940;-54
2022/08/19 07:23:48;;;;;;;72.32;58.78;;;25.00;65.90;;;;;;4948473;28;95036;-55
2022/08/19 07:26:28;;;;;;;76.40;59.42;;;25.10;66.10;;;;;;4952173;28;98641;-54
2022/08/19 07:28:55;;;;;;;72.32;58.83;;;25.00;66.20;;;;;;4946268;28;96199;-55
2022/08/19 07:31:23;;;;;;;76.20;59.03;;;25.00;66.30;;;;;;4941480;28;95693;-55
2022/08/19 07:33:51;;;;;;;79.45;58.72;;;25.00;66.20;;;;;;4947057;28;95365;-57
2022/08/19 07:36:21;;;;;;;75.82;57.85;;;25.00;66.20;;;;;;4941964;28;95117;-55
2022/08/19 07:38:49;;;;;;;74.20;57.90;;;25.00;66.30;;;;;;4945064;28;96744;-55
2022/08/19 07:41:19;;;;;;;72.72;57.33;;;24.90;66.70;;;;;;4947548;28;97230;-55
2022/08/19 07:43:45;;;;;;;70.43;56.80;;;25.00;66.70;;;;;;4949301;28;96695;-56
2022/08/19 07:46:13;;;;;;;70.70;56.60;;;25.00;66.50;;;;;;4947592;28;96543;-55
2022/08/19 07:48:40;;;;;;;69.38;56.03;;;24.90;66.50;;;;;;4948980;28;98475;-55
2022/08/19 07:51:08;;;;;;;71.15;55.60;;;24.90;66.50;;;;;;4947588;28;96421;-55
2022/08/19 07:53:35;;;;;;;73.72;55.35;;;24.90;66.70;;;;;;4950671;28;95543;-56
2022/08/19 07:56:03;;;;;;;70.45;56.05;;;24.90;66.50;;;;;;4943122;28;98078;-55
2022/08/19 07:58:32;;;;;;;71.15;55.72;;;25.00;66.80;;;;;;4944540;28;99160;-56
2022/08/19 08:00:58;;;;;;;69.45;54.53;;;25.00;66.90;;;;;;4940827;28;95238;-55
2022/08/19 08:09:10;;;;;;;71.03;54.90;;;24.90;67.00;;;;;;4954618;28;95287;-54
2022/08/19 08:09:12;;;;;;;70.72;54.13;;;25.00;66.90;;;;;;4949914;28;97319;-56
2022/08/19 08:11:48;;;;;;;67.45;54.83;;;25.00;67.00;;;;;;4949876;28;94959;-56
2022/08/19 08:14:19;;;;;;;68.20;54.35;;;25.00;67.00;;;;;;4951948;28;95085;-55
2022/08/19 08:16:45;;;;;;;;;;;25.10;66.90;;;;;;4946812;28;98808;-54
2022/08/19 08:19:14;;;;;;;68.88;53.72;;;25.10;66.90;;;;;;4946991;28;94900;-56
2022/08/19 08:21:40;;;;;;;67.15;53.33;;;25.10;66.90;;;;;;4947377;28;98606;-54
2022/08/19 08:24:05;;;;;;;68.05;55.00;;;25.00;67.00;;;;;;4942935;28;94942;-54
2022/08/19 08:26:31;;;;;;;69.07;56.58;;;25.20;67.60;;;;;;4940689;28;98994;-55
2022/08/19 08:28:57;;;;;;;73.95;55.25;;;25.10;67.40;;;;;;4955863;28;95224;-56
2022/08/19 08:31:23;;;;;;;67.32;55.08;;;25.10;67.20;;;;;;4954128;28;95523;-54
2022/08/19 08:33:49;;;;;;;71.32;55.25;;;25.20;67.20;;;;;;4943535;28;95935;-51
2022/08/19 08:36:15;;;;;;;69.82;56.35;;;25.20;66.90;;;;;;4948259;28;97210;-52
2022/08/19 08:38:45;;;;;;;67.50;54.05;;;25.20;66.90;;;;;;4947699;28;99494;-53
2022/08/19 08:41:30;;;;;;;66.10;54.17;;;25.30;66.90;;;;;;4940738;28;96782;-54
2022/08/19 08:43:57;;;;;;;66.57;53.70;;;25.30;66.70;;;;;;4944994;28;94934;-48
2022/08/19 08:46:31;;;;;;;68.05;53.72;;;25.20;66.30;;;;;;4942480;28;94791;-55
2022/08/19 08:49:11;;;;;;;65.88;53.80;;;25.30;66.50;;;;;;4949217;28;97664;-52
2022/08/19 08:51:52;;;;;;;65.97;53.88;;;25.20;66.60;;;;;;4950294;28;94947;-55
2022/08/19 08:54:22;;;;;;;67.25;53.00;;;25.30;66.80;;;;;;4946469;28;97297;-54
2022/08/19 08:56:51;;;;;;;65.57;53.75;;;25.20;66.60;;;;;;4942959;28;99816;-54
2022/08/19 08:59:20;;;;;;;68.53;54.13;;;25.30;66.60;;;;;;4955301;28;94256;-53
2022/08/19 09:01:46;;;;;;;65.45;52.72;;;25.40;66.70;;;;;;4944805;28;94764;-54
2022/08/19 09:04:13;;;;;;;63.75;52.75;;;25.40;66.50;;;;;;4945126;28;95815;-53
2022/08/19 09:06:45;;;;;;;65.20;52.90;;;25.40;66.70;;;;;;4947265;28;97364;-53
2022/08/19 09:09:34;;;;;;;66.57;53.45;;;25.40;66.90;;;;;;4949146;28;95405;-54
2022/08/19 09:12:23;;;;;;;66.93;52.83;;;25.30;66.80;;;;;;4949847;28;96029;-53
2022/08/19 09:15:11;;;;;;;69.28;53.55;;;25.40;66.80;;;;;;4939584;28;95493;-51
2022/08/19 09:17:38;;;;;;;66.88;52.72;;;25.40;66.60;;;;;;4949491;28;95137;-52
2022/08/19 09:20:10;;;;;;;63.75;52.63;;;25.40;66.80;;;;;;4941684;28;96542;-53
2022/08/19 09:22:39;;;;;;;66.88;53.08;;;25.30;66.80;;;;;;4946437;28;96231;-52
2022/08/19 09:25:08;;;;;;;65.07;52.20;;;25.30;66.80;;;;;;4952972;28;95864;-52
2022/08/19 09:27:38;;;;;;;72.22;53.20;;;25.30;66.90;;;;;;4941499;28;100070;-50
2022/08/19 09:30:04;;;;;;;65.13;52.25;;;25.30;67.10;;;;;;4949848;28;96540;-52
2022/08/19 09:32:30;;;;;;;63.92;52.20;;;25.20;67.10;;;;;;4945701;28;95782;-52
2022/08/19 09:34:57;;;;;;;63.45;51.92;;;25.30;67.10;;;;;;4940041;28;97201;-52
2022/08/19 09:37:24;;;;;;;63.35;51.58;;;25.20;67.50;;;;;;4939677;28;95762;-55
2022/08/19 09:39:50;;;;;;;66.40;51.67;;;25.40;67.10;;;;;;4958083;28;95107;-55
2022/08/19 09:42:16;;;;;;;69.35;51.92;;;25.40;66.80;;;;;;4942898;28;98129;-53
2022/08/19 09:44:43;;;;;;;64.50;51.83;;;25.50;67.10;;;;;;4960463;28;95147;-53
2022/08/19 09:47:10;;;;;;;63.33;51.63;;;25.50;67.40;;;;;;4939941;28;96636;-55
2022/08/19 09:49:37;;;;;;;63.00;51.42;;;25.50;67.10;;;;;;4945803;28;95111;-54
2022/08/19 09:52:03;;;;;;;63.38;51.28;;;25.50;67.00;;;;;;4951851;28;96342;-53
2022/08/19 09:54:29;;;;;;;62.15;51.13;;;25.40;67.50;;;;;;4939497;28;97380;-55
2022/08/19 09:56:57;;;;;;;64.70;51.08;;;25.40;67.50;;;;;;4946106;28;96178;-52
2022/08/19 09:59:23;;;;;;;65.15;50.95;;;25.50;67.20;;;;;;4943246;28;95187;-52
2022/08/19 10:01:50;;;;;;;63.95;51.13;;;25.50;67.10;;;;;;4946115;28;94927;-55
2022/08/19 10:04:16;;;;;;;64.78;51.05;;;25.50;66.80;;;;;;4946329;28;95460;-54
2022/08/19 10:06:42;;;;;;;61.80;50.53;;;25.50;66.70;;;;;;4951572;28;94726;-59
2022/08/19 10:09:10;;;;;;;62.70;50.45;;;25.40;66.00;;;;;;4945862;28;95291;-57
2022/08/19 10:11:39;;;;;;;62.45;50.70;;;25.50;66.80;;;;;;4944805;28;95480;-55
2022/08/19 10:14:08;;;;;;;63.13;50.70;;;25.40;66.80;;;;;;4943354;28;94670;-52
2022/08/19 10:16:36;;;;;;;61.72;50.67;;;25.50;66.90;;;;;;4942062;28;101343;-53
2022/08/19 10:19:03;;;;;;;61.80;50.72;;;25.50;66.70;;;;;;4943377;28;95675;-52
2022/08/19 10:21:31;;;;;;;61.63;50.55;;;25.50;65.60;;;;;;4942725;28;97308;-53
2022/08/19 10:23:59;;;;;;;62.15;50.72;;;25.40;66.20;;;;;;4940105;28;96194;-55
2022/08/19 10:26:31;;;;;;;65.30;50.92;;;25.40;66.70;;;;;;4941791;28;97147;-51
2022/08/19 10:28:57;;;;;;;61.33;50.72;;;25.40;68.10;;;;;;4949080;28;95238;-54
2022/08/19 10:31:28;;;;;;;61.75;50.53;;;25.50;69.00;;;;;;4954155;28;94924;-52
2022/08/19 10:33:57;;;;;;;;;;;25.40;67.40;;;;;;4945747;28;95454;-51
2022/08/19 10:36:29;;;;;;;61.58;50.45;;;25.60;68.60;;;;;;4943966;28;96779;-53
2022/08/19 10:38:58;;;;;;;61.50;50.63;;;25.50;67.90;;;;;;4946102;28;95523;-49
2022/08/19 10:41:27;;;;;;;62.47;51.00;;;25.50;67.90;;;;;;4937242;28;95680;-53
2022/08/19 10:43:56;;;;;;;61.65;50.83;;;25.50;67.90;;;;;;4945356;28;96058;-52
2022/08/19 10:46:24;;;;;;;63.08;50.95;;;25.40;67.10;;;;;;4937916;28;96645;-49
2022/08/19 10:48:50;;;;;;;63.50;51.05;;;25.40;68.00;;;;;;4940377;28;95390;-49
2022/08/19 10:54:02;;;;;;;61.33;50.75;;;25.40;68.00;;;;;;4943575;28;101814;-50
2022/08/19 10:59:14;;;;;;;62.75;51.13;;;25.50;67.80;;;;;;4943626;28;94794;-52
2022/08/19 11:01:42;;;;;;;61.08;50.65;;;25.40;67.30;;;;;;4944692;28;96326;-52
2022/08/19 11:04:13;;;;;;;61.80;50.88;;;25.50;67.80;;;;;;4940187;28;96349;-51
2022/08/19 11:06:43;;;;;;;62.28;51.03;;;25.60;67.30;;;;;;4945612;28;96312;-53
2022/08/19 11:09:10;;;;;;;64.25;51.20;;;25.40;67.30;;;;;;4944903;28;96658;-48
2022/08/19 11:11:40;;;;;;;61.50;50.90;;;25.40;67.70;;;;;;4949004;28;97508;-49
2022/08/19 11:14:07;;;;;;;61.15;50.65;;;25.40;67.40;;;;;;4945755;28;96989;-53
2022/08/19 11:16:33;;;;;;;62.40;50.97;;;25.40;67.60;;;;;;4945766;28;99715;-53
2022/08/19 11:18:59;;;;;;;62.38;50.92;;;25.30;67.80;;;;;;4943882;28;95106;-50
2022/08/19 11:21:31;;;;;;;61.60;50.72;;;25.40;68.00;;;;;;4947110;28;95461;-50
2022/08/19 11:24:00;;;;;;;62.88;50.85;;;25.40;68.10;;;;;;4942835;28;99043;-49
2022/08/19 11:26:29;;;;;;;62.78;51.00;;;25.50;68.60;;;;;;4943024;28;94913;-53
2022/08/19 11:28:57;;;;;;;63.85;51.03;;;25.40;67.90;;;;;;4938507;28;94610;-51
2022/08/19 11:31:26;;;;;;;63.55;51.15;;;25.40;68.50;;;;;;4954645;28;98280;-52
2022/08/19 11:33:53;;;;;;;63.30;50.83;;;25.30;68.80;;;;;;4953395;28;99115;-51
2022/08/19 11:36:20;;;;;;;62.45;50.92;;;25.40;68.40;;;;;;4946077;28;96622;-51
2022/08/19 11:38:49;;;;;;;64.35;50.83;;;25.30;68.50;;;;;;4953666;28;95715;-50
2022/08/19 11:41:18;;;;;;;65.72;51.03;;;25.30;68.70;;;;;;4943603;28;97543;-52
2022/08/19 11:43:43;;;;;;;64.68;51.10;;;25.30;69.20;;;;;;4942008;28;94913;-52
2022/08/19 11:46:12;;;;;;;64.60;51.13;;;25.30;69.60;;;;;;4945298;28;95712;-52
2022/08/19 11:48:38;;;;;;;63.65;51.13;;;25.30;70.00;;;;;;4952226;28;96169;-51
2022/08/19 11:51:07;;;;;;;63.22;51.05;;;25.30;72.20;;;;;;4941739;28;97423;-48
2022/08/19 11:53:34;;;;;;;63.45;51.25;;;25.30;70.20;;;;;;4939693;28;98753;-50
2022/08/19 11:56:00;;;;;;;61.75;50.83;;;25.30;71.00;;;;;;4952873;28;100445;-52
2022/08/19 11:58:25;;;;;;;61.47;51.00;;;25.30;71.20;;;;;;4948851;28;95944;-50
2022/08/19 12:00:52;;;;;;;64.70;51.33;;;25.40;71.40;;;;;;4937447;28;96915;-53
2022/08/19 12:03:19;;;;;;;63.75;50.83;;;25.30;71.10;;;;;;4946681;28;96549;-53
2022/08/19 12:05:45;;;;;;;66.00;51.05;;;25.40;71.00;;;;;;4940011;28;97398;-51
2022/08/19 12:08:12;;;;;;;66.32;51.00;;;25.40;70.30;;;;;;4941120;28;94736;-48
2022/08/19 12:10:39;;;;;;;63.65;50.65;;;25.40;70.60;;;;;;4941340;28;95854;-52
2022/08/19 12:13:06;;;;;;;63.22;50.75;;;25.50;70.10;;;;;;4949676;28;101600;-53
2022/08/19 12:15:40;;;;;;;62.03;50.75;;;25.60;69.60;;;;;;4948182;28;95212;-49
2022/08/19 12:18:07;;;;;;;67.07;51.10;;;25.50;69.50;;;;;;4946542;28;96714;-50
2022/08/19 12:20:36;;;;;;;64.47;51.25;;;25.50;70.40;;;;;;4940553;28;95765;-52
2022/08/19 12:23:03;;;;;;;64.75;51.47;;;25.50;70.40;;;;;;4946548;28;95009;-51
2022/08/19 12:25:29;;;;;;;63.83;51.75;;;25.40;71.70;;;;;;4946453;28;96356;-52
2022/08/19 12:27:54;;;;;;;62.03;50.90;;;25.40;72.40;;;;;;4947836;28;94937;-50
2022/08/19 12:30:20;;;;;;;64.72;50.72;;;25.30;73.10;;;;;;4945355;28;95905;-52
2022/08/19 12:32:46;;;;;;;61.78;50.95;;;25.30;73.90;;;;;;4954809;28;97839;-50
2022/08/19 12:35:12;;;;;;;62.78;51.10;;;25.40;72.30;;;;;;4948037;28;96266;-53
2022/08/19 12:37:39;;;;;;;62.03;51.08;;;25.40;73.70;;;;;;4948618;28;95265;-51
2022/08/19 12:40:05;;;;;;;62.42;51.03;;;25.40;74.00;;;;;;4950177;28;94796;-53
2022/08/19 12:42:31;;;;;;;62.63;51.13;;;25.40;74.30;;;;;;4944504;28;95484;-49
2022/08/19 12:44:57;;;;;;;61.35;50.63;;;25.40;73.70;;;;;;4946600;28;95334;-50
2022/08/19 12:47:22;;;;;;;64.43;51.17;;;25.50;72.70;;;;;;4944466;28;98510;-51
2022/08/19 12:49:49;;;;;;;62.55;50.95;;;25.50;72.10;;;;;;4950921;28;96879;-50